createdAt,value
2023-04-09T00:01:43.753Z,6.05
2023-04-09T00:04:10.334Z,5.60
2023-04-09T00:06:41.726Z,5.75
2023-04-09T00:09:08.295Z,6.07
2023-04-09T00:11:37.048Z,5.97
2023-04-09T00:14:03.742Z,5.50
2023-04-09T00:16:30.337Z,5.30
2023-04-09T00:18:59.493Z,5.55
2023-04-09T00:21:27.150Z,5.50
2023-04-09T00:23:56.173Z,5.82
2023-04-09T00:26:22.961Z,5.47
2023-04-09T00:28:49.885Z,5.43
2023-04-09T00:31:17.045Z,5.40
2023-04-09T00:33:44.592Z,5.45
2023-04-09T00:36:11.287Z,5.13
2023-04-09T00:38:37.984Z,5.25
2023-04-09T00:41:04.724Z,5.13
2023-04-09T00:43:31.356Z,5.40
2023-04-09T00:45:59.591Z,4.85
2023-04-09T00:48:26.665Z,5.65
2023-04-09T00:50:53.396Z,5.60
2023-04-09T00:53:20.284Z,4.97
2023-04-09T00:55:49.551Z,5.15
2023-04-09T00:58:16.221Z,5.10
2023-04-09T01:00:42.890Z,5.00
2023-04-09T01:03:11.712Z,4.90
2023-04-09T01:05:52.668Z,5.20
2023-04-09T01:08:24.902Z,4.97
2023-04-09T01:10:56.361Z,5.47
2023-04-09T01:13:34.206Z,5.15
2023-04-09T01:16:03.232Z,5.25
2023-04-09T01:18:38.836Z,4.87
2023-04-09T01:21:09.902Z,5.03
2023-04-09T01:23:42.600Z,4.82
2023-04-09T01:26:27.245Z,5.00
2023-04-09T01:28:57.316Z,4.50
2023-04-09T01:31:36.344Z,4.70
2023-04-09T01:34:05.166Z,4.78
2023-04-09T01:36:33.477Z,4.50
2023-04-09T01:39:03.514Z,4.63
2023-04-09T01:41:33.146Z,4.95
2023-04-09T01:44:01.960Z,5.00
2023-04-09T01:46:29.712Z,5.30
2023-04-09T01:48:59.449Z,5.13
2023-04-09T01:51:27.394Z,4.70
2023-04-09T01:53:56.485Z,4.85
2023-04-09T01:56:23.047Z,4.80
2023-04-09T01:58:49.698Z,4.57
2023-04-09T02:01:44.207Z,4.55
2023-04-09T02:04:17.949Z,4.53
2023-04-09T02:06:50.708Z,4.68
2023-04-09T02:09:19.669Z,4.60
2023-04-09T02:11:48.272Z,4.22
2023-04-09T02:14:16.494Z,5.28
2023-04-09T02:16:43.404Z,4.80
2023-04-09T02:19:09.998Z,4.60
2023-04-09T02:21:36.629Z,4.73
2023-04-09T02:24:03.310Z,4.80
2023-04-09T02:26:29.879Z,4.78
2023-04-09T02:28:56.437Z,5.32
2023-04-09T02:31:23.056Z,5.30
2023-04-09T02:33:50.753Z,4.90
2023-04-09T02:36:17.348Z,5.65
2023-04-09T02:38:46.378Z,5.35
2023-04-09T02:41:12.948Z,4.85
2023-04-09T02:43:41.985Z,5.97
2023-04-09T02:46:08.828Z,5.10
2023-04-09T02:48:37.925Z,5.45
2023-04-09T02:51:07.298Z,5.70
2023-04-09T02:53:33.900Z,5.15
2023-04-09T02:56:00.479Z,6.55
2023-04-09T02:58:27.039Z,6.00
2023-04-09T03:00:53.620Z,6.85
2023-04-09T03:03:22.758Z,6.90
2023-04-09T03:05:51.684Z,6.63
2023-04-09T03:08:20.617Z,6.72
2023-04-09T03:10:47.260Z,6.90
2023-04-09T03:13:13.942Z,6.80
2023-04-09T03:15:43.799Z,8.07
2023-04-09T03:18:10.380Z,7.45
2023-04-09T03:20:42.436Z,7.88
2023-04-09T03:23:09.137Z,7.80
2023-04-09T03:25:35.788Z,7.93
2023-04-09T03:28:03.220Z,8.13
2023-04-09T03:30:30.345Z,7.80
2023-04-09T03:32:56.982Z,9.77
2023-04-09T03:35:23.627Z,8.37
2023-04-09T03:37:51.342Z,8.88
2023-04-09T03:40:18.012Z,9.52
2023-04-09T03:42:44.652Z,9.40
2023-04-09T03:45:11.345Z,9.75
2023-04-09T03:47:37.979Z,9.20
2023-04-09T03:50:04.845Z,9.45
2023-04-09T03:52:31.458Z,9.25
2023-04-09T03:55:00.578Z,10.10
2023-04-09T03:57:27.196Z,10.23
2023-04-09T03:59:53.777Z,9.80
2023-04-09T04:02:23.077Z,10.60
2023-04-09T04:04:49.946Z,11.35
2023-04-09T04:07:16.555Z,10.70
2023-04-09T04:09:43.171Z,11.15
2023-04-09T04:12:12.233Z,11.40
2023-04-09T04:14:38.759Z,12.15
2023-04-09T04:17:05.373Z,12.32
2023-04-09T04:19:34.273Z,12.00
2023-04-09T04:22:00.839Z,12.40
2023-04-09T04:24:27.389Z,12.70
2023-04-09T04:26:56.324Z,11.93
2023-04-09T04:29:22.976Z,13.40
2023-04-09T04:31:51.764Z,13.30
2023-04-09T04:34:20.708Z,12.88
2023-04-09T04:36:47.226Z,12.73
2023-04-09T04:39:13.766Z,13.32
2023-04-09T04:41:40.477Z,14.35
2023-04-09T04:44:07.045Z,13.60
2023-04-09T04:46:33.611Z,13.60
2023-04-09T04:49:00.276Z,12.70
2023-04-09T04:51:27.862Z,13.52
2023-04-09T04:53:54.448Z,13.00
2023-04-09T04:56:21.114Z,13.10
2023-04-09T04:58:47.708Z,12.02
2023-04-09T05:01:14.287Z,11.77
2023-04-09T05:03:40.899Z,11.50
2023-04-09T05:06:07.585Z,11.15
2023-04-09T05:08:36.559Z,11.05
2023-04-09T05:11:03.206Z,10.60
2023-04-09T05:13:32.270Z,9.80
2023-04-09T05:15:58.876Z,10.63
2023-04-09T05:18:25.552Z,10.23
2023-04-09T05:20:52.101Z,10.63
2023-04-09T05:23:18.642Z,10.50
2023-04-09T05:25:47.530Z,10.93
2023-04-09T05:28:16.934Z,11.05
2023-04-09T05:30:47.596Z,11.93
2023-04-09T05:33:14.279Z,11.20
2023-04-09T05:35:41.003Z,11.40
2023-04-09T05:38:07.618Z,11.87
2023-04-09T05:40:36.685Z,11.95
2023-04-09T05:43:03.302Z,12.00
2023-04-09T05:45:32.363Z,11.60
2023-04-09T05:47:59.008Z,11.40
2023-04-09T05:50:25.690Z,12.07
2023-04-09T05:52:52.275Z,12.15
2023-04-09T05:55:18.964Z,12.43
2023-04-09T05:57:45.635Z,12.57
2023-04-09T06:00:13.576Z,12.45
2023-04-09T06:02:40.237Z,12.90
2023-04-09T06:05:09.542Z,12.27
2023-04-09T06:07:36.154Z,13.57
2023-04-09T06:10:02.940Z,12.98
2023-04-09T06:12:34.648Z,13.38
2023-04-09T06:15:01.283Z,13.47
2023-04-09T06:17:31.499Z,14.00
2023-04-09T06:19:58.047Z,13.98
2023-04-09T06:22:24.639Z,13.85
2023-04-09T06:24:53.728Z,14.73
2023-04-09T06:27:22.179Z,13.80
2023-04-09T06:29:50.946Z,15.13
2023-04-09T06:32:17.571Z,14.80
2023-04-09T06:34:44.220Z,13.73
2023-04-09T06:37:10.907Z,15.02
2023-04-09T06:39:40.317Z,13.70
2023-04-09T06:42:07.098Z,14.93
2023-04-09T06:44:34.309Z,15.68
2023-04-09T06:47:01.145Z,14.27
2023-04-09T06:49:27.866Z,14.75
2023-04-09T06:51:54.443Z,15.57
2023-04-09T06:54:21.028Z,14.13
2023-04-09T06:56:47.609Z,14.52
2023-04-09T06:59:14.310Z,14.10
2023-04-09T07:01:41.803Z,15.38
2023-04-09T07:04:08.653Z,14.93
2023-04-09T07:06:35.350Z,15.18
2023-04-09T07:09:01.938Z,14.75
2023-04-09T07:11:28.582Z,15.15
2023-04-09T07:13:56.890Z,15.60
2023-04-09T07:16:23.829Z,15.10
2023-04-09T07:18:50.830Z,15.80
2023-04-09T07:21:20.478Z,16.60
2023-04-09T07:23:49.251Z,15.35
2023-04-09T07:26:16.039Z,16.13
2023-04-09T07:28:42.680Z,14.80
2023-04-09T07:31:09.581Z,15.70
2023-04-09T07:33:36.252Z,16.13
2023-04-09T07:36:03.430Z,16.27
2023-04-09T07:38:30.432Z,15.65
2023-04-09T07:40:57.083Z,16.17
2023-04-09T07:43:23.712Z,15.10
2023-04-09T07:45:51.729Z,15.65
2023-04-09T07:48:18.345Z,15.52
2023-04-09T07:50:48.370Z,15.18
2023-04-09T07:53:15.195Z,15.97
2023-04-09T07:55:41.779Z,16.98
2023-04-09T07:58:08.375Z,16.55
2023-04-09T08:00:37.480Z,16.27
2023-04-09T08:03:04.332Z,17.08
2023-04-09T08:05:31.182Z,15.60
2023-04-09T08:07:57.731Z,15.40
2023-04-09T08:10:24.433Z,16.23
2023-04-09T08:12:51.238Z,15.73
2023-04-09T08:15:17.898Z,16.88
2023-04-09T08:17:44.536Z,17.30
2023-04-09T08:20:11.855Z,16.13
2023-04-09T08:22:38.544Z,16.38
2023-04-09T08:25:05.998Z,16.58
2023-04-09T08:27:34.023Z,15.30
2023-04-09T08:30:00.809Z,15.70
2023-04-09T08:32:30.370Z,10.63
2023-04-09T08:34:57.035Z,10.18
2023-04-09T08:37:23.599Z,11.32
2023-04-09T08:39:50.491Z,12.10
2023-04-09T08:42:17.376Z,13.53
2023-04-09T08:44:43.968Z,13.25
2023-04-09T08:47:11.803Z,14.77
2023-04-09T08:49:41.922Z,15.13
2023-04-09T08:52:08.884Z,14.25
2023-04-09T08:54:36.736Z,15.27
2023-04-09T08:57:06.790Z,16.35
2023-04-09T08:59:37.237Z,16.67
2023-04-09T09:02:13.015Z,14.95
2023-04-09T09:04:49.660Z,16.05
2023-04-09T09:07:18.560Z,16.97
2023-04-09T09:09:59.826Z,16.75
2023-04-09T09:12:38.654Z,16.67
2023-04-09T09:15:24.458Z,15.95
2023-04-09T09:17:56.008Z,16.75
2023-04-09T09:20:23.544Z,15.40
2023-04-09T09:22:55.908Z,15.48
2023-04-09T09:25:26.441Z,15.63
2023-04-09T09:27:54.579Z,15.45
2023-04-09T09:30:23.242Z,15.02
2023-04-09T09:33:09.351Z,15.80
2023-04-09T09:35:57.776Z,15.73
2023-04-09T09:38:24.481Z,16.52
2023-04-09T09:40:52.578Z,17.13
2023-04-09T09:43:19.218Z,16.50
2023-04-09T09:45:49.484Z,16.17
2023-04-09T09:48:16.391Z,15.65
2023-04-09T09:50:43.212Z,15.20
2023-04-09T09:53:15.004Z,16.55
2023-04-09T09:55:45.029Z,15.90
2023-04-09T09:58:23.649Z,15.70
2023-04-09T10:00:52.806Z,16.48
2023-04-09T10:03:28.159Z,16.27
2023-04-09T10:06:01.583Z,16.83
2023-04-09T10:08:30.165Z,15.80
2023-04-09T10:10:56.956Z,15.80
2023-04-09T10:13:33.992Z,16.50
2023-04-09T10:16:01.813Z,15.98
2023-04-09T10:18:33.532Z,16.45
2023-04-09T10:21:31.237Z,16.40
2023-04-09T10:23:58.548Z,16.63
2023-04-09T10:26:30.932Z,16.02
2023-04-09T10:29:13.885Z,16.67
2023-04-09T10:32:02.595Z,15.55
2023-04-09T10:34:38.587Z,17.17
2023-04-09T10:37:08.620Z,16.53
2023-04-09T10:39:41.077Z,16.48
2023-04-09T10:42:36.669Z,17.10
2023-04-09T10:45:07.930Z,17.73
2023-04-09T10:47:36.644Z,17.48
2023-04-09T10:50:17.115Z,18.07
2023-04-09T10:52:44.545Z,17.50
2023-04-09T10:55:30.318Z,17.40
2023-04-09T10:57:58.013Z,17.20
2023-04-09T11:00:24.760Z,17.45
2023-04-09T11:03:01.780Z,15.07
2023-04-09T11:05:28.494Z,15.88
2023-04-09T11:08:03.795Z,16.90
2023-04-09T11:10:31.118Z,16.17
2023-04-09T11:13:02.465Z,17.95
2023-04-09T11:15:29.315Z,17.83
2023-04-09T11:17:59.194Z,18.65
2023-04-09T11:20:27.460Z,19.30
2023-04-09T11:23:01.140Z,18.08
2023-04-09T11:25:29.790Z,19.35
2023-04-09T11:27:56.429Z,20.03
2023-04-09T11:30:23.061Z,20.50
2023-04-09T11:32:50.454Z,19.10
2023-04-09T11:35:19.334Z,19.38
2023-04-09T11:37:46.545Z,19.80
2023-04-09T11:40:17.870Z,20.53
2023-04-09T11:42:46.005Z,21.05
2023-04-09T11:45:13.432Z,20.70
2023-04-09T11:47:42.879Z,21.10
2023-04-09T11:50:11.923Z,22.55
2023-04-09T11:52:39.902Z,20.93
2023-04-09T11:55:07.326Z,22.25
2023-04-09T11:57:38.541Z,18.38
2023-04-09T12:00:10.580Z,17.75
2023-04-09T12:02:43.032Z,39.53
2023-04-09T12:05:11.863Z,162.30
2023-04-09T12:07:39.592Z,314.85
2023-04-09T12:10:10.247Z,344.52
2023-04-09T12:12:45.441Z,331.02
2023-04-09T12:15:24.161Z,284.58
2023-04-09T12:17:51.693Z,188.73
2023-04-09T12:20:31.604Z,145.02
2023-04-09T12:23:00.412Z,92.00
2023-04-09T12:25:27.931Z,84.70
2023-04-09T12:27:56.193Z,67.88
2023-04-09T12:30:23.720Z,53.47
2023-04-09T12:32:50.658Z,45.92
2023-04-09T12:35:17.415Z,45.45
2023-04-09T12:37:44.816Z,31.90
2023-04-09T12:40:16.549Z,31.92
2023-04-09T12:42:44.314Z,28.50
2023-04-09T12:45:14.641Z,30.38
2023-04-09T12:47:41.506Z,28.13
2023-04-09T12:50:09.366Z,29.67
2023-04-09T12:52:36.453Z,32.30
2023-04-09T12:55:07.080Z,30.10
2023-04-09T12:57:33.755Z,25.10
2023-04-09T13:00:00.481Z,25.95
2023-04-09T13:02:27.250Z,24.23
2023-04-09T13:04:54.033Z,25.40
2023-04-09T13:07:20.789Z,22.93
2023-04-09T13:09:48.967Z,23.27
2023-04-09T13:12:16.449Z,22.80
2023-04-09T13:14:49.061Z,23.05
2023-04-09T13:17:16.055Z,23.70
2023-04-09T13:19:43.023Z,22.33
2023-04-09T13:22:09.940Z,22.55
2023-04-09T13:24:36.720Z,23.00
2023-04-09T13:27:07.014Z,21.30
2023-04-09T13:29:33.608Z,22.67
2023-04-09T13:32:02.634Z,20.90
2023-04-09T13:34:29.265Z,19.95
2023-04-09T13:37:00.426Z,22.77
2023-04-09T13:39:26.990Z,22.10
2023-04-09T13:41:55.339Z,21.55
2023-04-09T13:44:22.752Z,20.63
2023-04-09T13:46:49.334Z,20.25
2023-04-09T13:49:16.588Z,20.65
2023-04-09T13:51:43.362Z,21.25
2023-04-09T13:54:11.374Z,21.05
2023-04-09T13:56:41.265Z,21.47
2023-04-09T13:59:07.953Z,20.60
2023-04-09T14:01:34.973Z,19.75
2023-04-09T14:04:02.236Z,19.52
2023-04-09T14:06:28.945Z,20.13
2023-04-09T14:08:55.910Z,18.70
2023-04-09T14:11:22.828Z,20.17
2023-04-09T14:13:49.493Z,18.35
2023-04-09T14:16:18.301Z,18.85
2023-04-09T14:18:45.012Z,18.80
2023-04-09T14:21:14.260Z,17.90
2023-04-09T14:23:43.533Z,18.08
2023-04-09T14:26:12.094Z,18.00
2023-04-09T14:28:38.801Z,18.50
2023-04-09T14:31:07.975Z,19.00
2023-04-09T14:33:34.831Z,19.53
2023-04-09T14:36:01.636Z,18.65
2023-04-09T14:38:28.264Z,19.10
2023-04-09T14:40:54.887Z,19.02
2023-04-09T14:43:21.484Z,18.92
2023-04-09T14:45:48.065Z,18.47
2023-04-09T14:48:14.756Z,19.95
2023-04-09T14:50:41.309Z,22.70
2023-04-09T14:53:07.904Z,31.25
2023-04-09T14:55:34.519Z,28.17
2023-04-09T14:58:03.762Z,24.40
2023-04-09T15:00:31.555Z,23.75
2023-04-09T15:02:58.529Z,21.38
2023-04-09T15:05:25.274Z,21.65
2023-04-09T15:07:52.047Z,20.80
2023-04-09T15:10:19.150Z,20.67
2023-04-09T15:12:50.681Z,20.08
2023-04-09T15:15:17.279Z,21.90
2023-04-09T15:17:43.918Z,23.35
2023-04-09T15:20:11.317Z,22.50
2023-04-09T15:22:37.890Z,21.97
2023-04-09T15:25:04.911Z,21.05
2023-04-09T15:27:31.636Z,25.30
2023-04-09T15:29:58.257Z,31.95
2023-04-09T15:32:24.955Z,23.52
2023-04-09T15:34:54.552Z,23.50
2023-04-09T15:37:21.130Z,23.92
2023-04-09T15:39:47.652Z,22.55
2023-04-09T15:42:20.265Z,23.27
2023-04-09T15:44:46.827Z,23.08
2023-04-09T15:47:16.605Z,21.37
2023-04-09T15:49:43.185Z,21.75
2023-04-09T15:52:09.804Z,22.45
2023-04-09T15:54:36.428Z,21.90
2023-04-09T15:57:04.241Z,21.48
2023-04-09T15:59:30.864Z,21.07
2023-04-09T16:01:57.681Z,22.80
2023-04-09T16:04:27.706Z,21.85
2023-04-09T16:06:56.368Z,22.08
2023-04-09T16:09:23.832Z,20.80
2023-04-09T16:11:51.192Z,22.77
2023-04-09T16:14:17.957Z,20.08
2023-04-09T16:16:49.486Z,19.00
2023-04-09T16:19:20.440Z,19.63
2023-04-09T16:21:47.498Z,19.20
2023-04-09T16:24:15.558Z,18.87
2023-04-09T16:26:45.933Z,18.27
2023-04-09T16:29:16.341Z,19.67
2023-04-09T16:31:43.166Z,18.80
2023-04-09T16:34:09.844Z,19.35
2023-04-09T16:36:41.183Z,21.20
2023-04-09T16:39:07.771Z,21.27
2023-04-09T16:41:36.795Z,21.05
2023-04-09T16:44:03.858Z,19.30
2023-04-09T16:46:31.027Z,27.27
2023-04-09T16:48:57.954Z,28.90
2023-04-09T16:51:24.561Z,25.67
2023-04-09T16:53:55.872Z,24.27
2023-04-09T16:56:22.435Z,28.23
2023-04-09T16:58:49.250Z,36.25
2023-04-09T17:01:18.073Z,33.30
2023-04-09T17:03:44.935Z,25.52
2023-04-09T17:06:11.917Z,22.65
2023-04-09T17:08:38.497Z,22.23
2023-04-09T17:11:05.327Z,20.20
2023-04-09T17:13:37.106Z,20.80
2023-04-09T17:16:06.759Z,21.08
2023-04-09T17:18:33.564Z,20.10
2023-04-09T17:21:00.621Z,20.10
2023-04-09T17:23:27.211Z,20.27
2023-04-09T17:25:53.982Z,19.40
2023-04-09T17:28:20.526Z,19.73
2023-04-09T17:30:47.346Z,19.63
2023-04-09T17:33:16.337Z,20.83
2023-04-09T17:35:43.429Z,19.85
2023-04-09T17:38:11.762Z,19.37
2023-04-09T17:40:38.399Z,17.88
2023-04-09T17:43:08.029Z,19.38
2023-04-09T17:45:34.610Z,18.50
2023-04-09T17:48:01.203Z,18.33
2023-04-09T17:50:30.048Z,19.87
2023-04-09T17:52:58.844Z,19.90
2023-04-09T17:55:25.588Z,21.17
2023-04-09T17:57:52.149Z,21.85
2023-04-09T18:00:18.954Z,20.08
2023-04-09T18:02:46.171Z,19.93
2023-04-09T18:05:13.121Z,19.10
2023-04-09T18:07:39.805Z,18.42
2023-04-09T18:10:11.485Z,17.73
2023-04-09T18:12:40.482Z,18.08
2023-04-09T18:15:10.169Z,17.53
2023-04-09T18:17:36.794Z,18.30
2023-04-09T18:20:06.580Z,18.23
2023-04-09T18:22:35.128Z,18.15
2023-04-09T18:25:02.072Z,18.38
2023-04-09T18:27:28.704Z,16.50
2023-04-09T18:29:56.021Z,17.30
2023-04-09T18:32:23.717Z,17.33
2023-04-09T18:34:53.380Z,18.17
2023-04-09T18:37:21.449Z,18.25
2023-04-09T18:39:52.607Z,17.00
2023-04-09T18:42:19.235Z,17.45
2023-04-09T18:44:46.082Z,16.00
2023-04-09T18:47:12.621Z,15.90
2023-04-09T18:49:39.190Z,15.27
2023-04-09T18:52:09.296Z,14.27
2023-04-09T18:54:37.320Z,14.20
2023-04-09T18:57:04.239Z,14.77
2023-04-09T18:59:33.450Z,14.30
2023-04-09T19:02:00.703Z,16.48
2023-04-09T19:04:28.180Z,16.30
2023-04-09T19:06:55.172Z,17.23
2023-04-09T19:09:21.898Z,17.13
2023-04-09T19:11:48.510Z,16.02
2023-04-09T19:14:15.104Z,15.70
2023-04-09T19:16:44.183Z,14.73
2023-04-09T19:19:11.899Z,14.43
2023-04-09T19:21:38.499Z,14.38
2023-04-09T19:24:07.582Z,15.38
2023-04-09T19:26:34.196Z,14.45
2023-04-09T19:29:03.754Z,14.73
2023-04-09T19:31:30.380Z,14.98
2023-04-09T19:33:57.244Z,15.00
2023-04-09T19:36:23.871Z,15.02
2023-04-09T19:38:51.205Z,15.35
2023-04-09T19:41:18.042Z,14.57
2023-04-09T19:43:46.248Z,15.82
2023-04-09T19:46:13.237Z,15.48
2023-04-09T19:48:42.952Z,15.55
2023-04-09T19:51:16.010Z,15.65
2023-04-09T19:56:09.576Z,15.43
2023-04-09T19:58:36.775Z,15.40
2023-04-09T20:01:03.436Z,15.25
2023-04-09T20:03:32.017Z,15.43
2023-04-09T20:06:01.654Z,15.60
2023-04-09T20:08:28.235Z,15.60
2023-04-09T20:10:54.799Z,15.57
2023-04-09T20:13:21.353Z,15.32
2023-04-09T20:15:49.908Z,15.05
2023-04-09T20:18:16.577Z,14.97
2023-04-09T20:20:43.189Z,15.23
2023-04-09T20:23:09.902Z,16.17
2023-04-09T20:25:36.836Z,14.77
2023-04-09T20:28:06.468Z,14.88
2023-04-09T20:30:33.148Z,15.10
2023-04-09T20:33:02.820Z,15.00
2023-04-09T20:35:29.417Z,15.18
2023-04-09T20:37:56.478Z,15.30
2023-04-09T20:40:23.064Z,16.25
2023-04-09T20:42:52.936Z,15.10
2023-04-09T20:45:19.556Z,15.30
2023-04-09T20:47:46.155Z,15.20
2023-04-09T20:50:12.919Z,14.90
2023-04-09T20:52:41.968Z,15.00
2023-04-09T20:55:08.705Z,15.23
2023-04-09T20:57:35.311Z,15.25
2023-04-09T21:00:04.245Z,15.82
2023-04-09T21:02:31.015Z,15.38
2023-04-09T21:05:00.008Z,15.68
2023-04-09T21:07:30.027Z,14.77
2023-04-09T21:09:56.598Z,15.55
2023-04-09T21:12:23.221Z,15.57
2023-04-09T21:14:49.781Z,14.98
2023-04-09T21:17:16.380Z,15.57
2023-04-09T21:19:42.939Z,15.03
2023-04-09T21:22:09.565Z,15.30
2023-04-09T21:24:36.795Z,15.93
2023-04-09T21:27:06.920Z,14.88
2023-04-09T21:29:37.970Z,14.40
2023-04-09T21:32:04.654Z,15.83
2023-04-09T21:34:31.521Z,14.50
2023-04-09T21:37:04.533Z,14.70
2023-04-09T21:39:31.409Z,14.77
2023-04-09T21:41:58.248Z,15.23
2023-04-09T21:44:24.783Z,14.60
2023-04-09T21:46:52.256Z,15.25
2023-04-09T21:49:18.880Z,15.25
2023-04-09T21:51:46.568Z,14.75
2023-04-09T21:54:13.157Z,14.68
2023-04-09T21:56:39.795Z,14.47
2023-04-09T21:59:06.409Z,14.10
2023-04-09T22:01:34.776Z,14.13
2023-04-09T22:04:02.147Z,14.57
2023-04-09T22:06:32.337Z,13.55
2023-04-09T22:08:59.075Z,14.17
2023-04-09T22:11:29.642Z,14.50
2023-04-09T22:13:57.448Z,14.35
2023-04-09T22:16:25.058Z,13.48
2023-04-09T22:18:54.886Z,13.93
2023-04-09T22:21:22.453Z,12.53
2023-04-09T22:23:51.601Z,13.68
2023-04-09T22:26:18.162Z,12.85
2023-04-09T22:28:44.809Z,13.23
2023-04-09T22:31:11.486Z,13.65
2023-04-09T22:33:38.069Z,13.50
2023-04-09T22:36:05.509Z,12.55
2023-04-09T22:38:32.528Z,12.52
2023-04-09T22:41:00.528Z,12.48
2023-04-09T22:43:27.406Z,12.48
2023-04-09T22:45:54.930Z,12.43
2023-04-09T22:48:23.107Z,11.93
2023-04-09T22:50:50.484Z,12.82
2023-04-09T22:53:20.899Z,11.52
2023-04-09T22:55:51.735Z,11.68
2023-04-09T22:58:18.856Z,12.30
2023-04-09T23:00:47.092Z,11.23
2023-04-09T23:03:14.010Z,10.90
2023-04-09T23:05:40.901Z,11.15
2023-04-09T23:08:07.516Z,11.00
2023-04-09T23:10:34.438Z,10.60
2023-04-09T23:13:01.210Z,9.80
2023-04-09T23:15:28.588Z,10.23
2023-04-09T23:17:55.599Z,10.25
2023-04-09T23:20:22.893Z,9.82
2023-04-09T23:22:49.700Z,9.53
2023-04-09T23:25:18.568Z,9.15
2023-04-09T23:27:47.582Z,9.77
2023-04-09T23:30:17.210Z,8.98
2023-04-09T23:32:47.646Z,10.02
2023-04-09T23:35:14.838Z,8.77
2023-04-09T23:37:42.649Z,8.45
2023-04-09T23:40:12.884Z,8.40
2023-04-09T23:42:39.480Z,8.40
2023-04-09T23:45:09.250Z,7.95
2023-04-09T23:47:36.607Z,7.90
2023-04-09T23:50:08.277Z,7.50
2023-04-09T23:52:38.891Z,7.60
2023-04-09T23:55:09.824Z,7.75
2023-04-09T23:57:39.859Z,8.05
